Time;durP1;ratioP1;P1;durP2;ratioP2;P2;SDS_P1;SDS_P2;PMS_P1;PMS_P2;Temp;Humidity;BMP_temperature;BMP_pressure;BME280_temperature;BME280_humidity;BME280_pressure;Samples;Min_cycle;Max_cycle;Signal;HPM_P1;HPM_P2
2023/09/25 00:01:04;;;;;;;1.07;0.93;;;10.50;99.90;;;;;;5009461;28;20222;-57
2023/09/25 00:03:33;;;;;;;0.83;0.83;;;10.50;99.90;;;;;;5013452;28;20219;-57
2023/09/25 00:06:00;;;;;;;4.37;1.30;;;10.40;99.90;;;;;;5012908;28;20210;-57
2023/09/25 00:08:27;;;;;;;0.77;0.70;;;10.40;99.90;;;;;;5011607;28;20257;-57
2023/09/25 00:10:54;;;;;;;2.10;1.30;;;10.40;99.90;;;;;;5008554;28;20268;-57
2023/09/25 00:13:21;;;;;;;1.03;0.93;;;10.30;99.90;;;;;;5004147;28;20276;-57
2023/09/25 00:15:48;;;;;;;0.90;0.90;;;10.30;99.90;;;;;;5014313;28;20215;-57
2023/09/25 00:18:16;;;;;;;2.00;0.93;;;10.20;99.90;;;;;;5014766;28;20237;-57
2023/09/25 00:20:44;;;;;;;2.00;0.80;;;10.20;99.90;;;;;;4994490;28;20225;-57
2023/09/25 00:23:11;;;;;;;0.80;0.80;;;10.30;99.90;;;;;;5009813;28;20226;-57
2023/09/25 00:25:38;;;;;;;2.13;1.10;;;10.40;99.90;;;;;;5011505;28;20213;-56
2023/09/25 00:28:05;;;;;;;1.40;1.23;;;10.40;99.90;;;;;;5005320;28;20210;-57
2023/09/25 00:30:33;;;;;;;1.00;1.00;;;10.40;99.90;;;;;;5011112;28;20286;-57
2023/09/25 00:33:00;;;;;;;0.80;0.80;;;10.30;99.90;;;;;;5010272;28;20575;-56
2023/09/25 00:35:27;;;;;;;1.37;1.27;;;10.20;99.90;;;;;;5014288;28;20260;-56
2023/09/25 00:37:56;;;;;;;1.33;0.93;;;10.20;99.90;;;;;;5011596;28;20214;-57
2023/09/25 00:40:24;;;;;;;1.03;0.80;;;10.20;99.90;;;;;;5011225;28;20749;-57
2023/09/25 00:42:53;;;;;;;1.90;1.03;;;10.20;99.90;;;;;;5012437;28;20228;-57
2023/09/25 00:45:21;;;;;;;0.70;0.60;;;10.20;99.90;;;;;;4995345;28;20294;-57
2023/09/25 00:47:50;;;;;;;1.10;1.00;;;10.20;99.90;;;;;;4998597;28;20669;-57
2023/09/25 00:50:18;;;;;;;5.43;2.30;;;10.20;99.90;;;;;;5008369;28;20201;-57
2023/09/25 00:52:46;;;;;;;1.00;1.00;;;10.10;99.90;;;;;;5004557;28;20839;-57
2023/09/25 00:55:15;;;;;;;1.50;1.03;;;10.10;99.90;;;;;;5012820;28;20685;-57
2023/09/25 00:57:43;;;;;;;2.03;1.00;;;10.10;99.90;;;;;;5010984;28;20205;-57
2023/09/25 01:00:11;;;;;;;0.90;0.90;;;10.00;99.90;;;;;;5006721;28;20219;-58
2023/09/25 01:02:39;;;;;;;1.53;1.43;;;10.00;99.90;;;;;;5002139;28;20223;-57
2023/09/25 01:05:08;;;;;;;1.03;0.90;;;9.90;99.90;;;;;;5008207;28;20301;-57
2023/09/25 01:07:36;;;;;;;1.00;1.00;;;9.90;99.90;;;;;;5013116;28;20596;-57
2023/09/25 01:10:13;;;;;;;1.03;0.83;;;9.80;99.90;;;;;;5013589;28;20755;-56
2023/09/25 01:12:41;;;;;;;0.90;0.90;;;9.80;99.90;;;;;;5013785;28;20222;-57
2023/09/25 01:15:09;;;;;;;0.90;0.90;;;9.70;99.90;;;;;;5009193;28;20211;-57
2023/09/25 01:17:37;;;;;;;1.00;0.90;;;9.70;99.90;;;;;;5011149;28;20736;-57
2023/09/25 01:20:12;;;;;;;1.17;1.17;;;9.70;99.90;;;;;;5006665;28;20217;-57
2023/09/25 01:22:41;;;;;;;0.80;0.80;;;9.60;99.90;;;;;;5005821;28;20701;-57
2023/09/25 01:25:10;;;;;;;1.17;1.07;;;9.60;99.90;;;;;;5013192;28;20669;-57
2023/09/25 01:27:37;;;;;;;3.60;2.20;;;9.70;99.90;;;;;;5010330;28;20256;-57
2023/09/25 01:30:05;;;;;;;0.73;0.73;;;9.70;99.90;;;;;;5013250;28;20282;-59
2023/09/25 01:32:32;;;;;;;0.90;0.90;;;9.70;99.90;;;;;;5013067;28;20226;-57
2023/09/25 01:34:59;;;;;;;2.40;0.93;;;9.60;99.90;;;;;;5007746;28;20286;-58
2023/09/25 01:37:26;;;;;;;1.00;1.00;;;9.50;99.90;;;;;;5004118;28;20208;-57
2023/09/25 01:39:55;;;;;;;0.90;0.90;;;9.50;99.90;;;;;;5010755;28;20271;-57
2023/09/25 01:42:22;;;;;;;1.33;1.20;;;9.50;99.90;;;;;;5008493;28;20709;-56
2023/09/25 01:44:49;;;;;;;2.20;0.93;;;9.40;99.90;;;;;;5000711;28;20210;-56
2023/09/25 01:47:17;;;;;;;2.40;1.30;;;9.40;99.90;;;;;;4992872;28;20212;-57
2023/09/25 01:49:44;;;;;;;2.37;1.30;;;9.40;99.90;;;;;;4992206;28;20292;-57
2023/09/25 01:52:12;;;;;;;1.23;1.20;;;9.40;99.90;;;;;;4993276;28;20231;-57
2023/09/25 01:54:39;;;;;;;1.03;1.03;;;9.40;99.90;;;;;;4996323;28;20209;-56
2023/09/25 01:57:07;;;;;;;1.63;0.70;;;9.50;99.90;;;;;;5006900;28;20205;-57
2023/09/25 01:59:35;;;;;;;1.10;0.90;;;9.40;99.90;;;;;;5012558;28;20754;-57
2023/09/25 02:02:01;;;;;;;1.97;1.07;;;9.30;99.90;;;;;;5005334;28;20758;-57
2023/09/25 02:04:32;;;;;;;1.13;1.00;;;9.30;99.90;;;;;;5004661;28;20273;-57
2023/09/25 02:06:59;;;;;;;0.80;0.80;;;9.20;99.90;;;;;;4995552;28;20206;-57
2023/09/25 02:09:26;;;;;;;0.90;0.90;;;9.20;99.90;;;;;;5008437;28;20213;-56
2023/09/25 02:11:53;;;;;;;1.00;0.90;;;9.20;99.90;;;;;;5009847;28;20206;-57
2023/09/25 02:14:21;;;;;;;1.20;1.20;;;9.20;99.90;;;;;;5008881;28;20274;-57
2023/09/25 02:16:48;;;;;;;1.00;0.83;;;9.20;99.90;;;;;;5002681;28;20232;-57
2023/09/25 02:19:16;;;;;;;1.37;1.37;;;9.20;99.90;;;;;;5012475;28;20194;-57
2023/09/25 02:21:43;;;;;;;2.83;1.23;;;9.20;99.90;;;;;;5012176;28;20638;-57
2023/09/25 02:24:10;;;;;;;1.33;1.23;;;9.20;99.90;;;;;;5000660;28;20252;-56
2023/09/25 02:26:37;;;;;;;1.00;0.90;;;9.10;99.90;;;;;;5011765;28;20674;-56
2023/09/25 02:29:04;;;;;;;0.73;0.73;;;9.10;99.90;;;;;;5007210;28;20197;-57
2023/09/25 02:31:32;;;;;;;1.77;0.70;;;9.00;99.90;;;;;;5012282;28;20194;-57
2023/09/25 02:33:59;;;;;;;1.80;1.30;;;9.00;99.90;;;;;;5004008;28;20225;-57
2023/09/25 02:36:26;;;;;;;1.10;1.00;;;9.00;99.90;;;;;;5008078;28;20262;-56
2023/09/25 02:38:53;;;;;;;1.23;1.23;;;9.10;99.90;;;;;;4996969;28;20208;-57
2023/09/25 02:41:20;;;;;;;0.80;0.80;;;9.00;99.90;;;;;;5011864;28;20268;-57
2023/09/25 02:43:47;;;;;;;1.23;1.13;;;9.00;99.90;;;;;;5011996;28;20229;-57
2023/09/25 02:46:14;;;;;;;1.07;1.07;;;9.10;99.90;;;;;;5011777;28;20204;-57
2023/09/25 02:48:42;;;;;;;1.33;1.20;;;9.00;99.90;;;;;;5010254;28;20661;-57
2023/09/25 02:51:09;;;;;;;1.30;1.00;;;9.00;99.90;;;;;;5000976;28;20198;-56
2023/09/25 02:53:36;;;;;;;1.13;1.07;;;9.00;99.90;;;;;;5003885;28;20724;-57
2023/09/25 02:56:03;;;;;;;3.07;0.80;;;9.00;99.90;;;;;;5011429;28;20210;-58
2023/09/25 02:58:30;;;;;;;0.90;0.90;;;9.00;99.90;;;;;;5007121;28;20269;-57
2023/09/25 03:00:58;;;;;;;1.20;1.20;;;9.00;99.90;;;;;;5010844;28;20217;-57
2023/09/25 03:03:26;;;;;;;1.43;1.10;;;9.00;99.90;;;;;;5002752;28;20271;-57
2023/09/25 03:05:54;;;;;;;1.00;0.90;;;8.90;99.90;;;;;;5003635;28;20198;-57
2023/09/25 03:08:21;;;;;;;0.90;0.90;;;8.80;99.90;;;;;;5002806;28;20250;-57
2023/09/25 03:10:48;;;;;;;0.90;0.90;;;8.80;99.90;;;;;;5011691;28;20199;-56
2023/09/25 03:13:15;;;;;;;0.93;0.93;;;8.80;99.90;;;;;;5011886;28;20281;-57
2023/09/25 03:15:43;;;;;;;1.27;1.20;;;8.70;99.90;;;;;;5005510;28;20200;-57
2023/09/25 03:18:11;;;;;;;1.67;0.87;;;8.70;99.90;;;;;;5011179;28;20839;-57
2023/09/25 03:20:39;;;;;;;1.20;1.20;;;8.70;99.90;;;;;;4994077;28;20246;-57
2023/09/25 03:23:07;;;;;;;1.07;1.07;;;8.70;99.90;;;;;;4995728;28;20654;-57
2023/09/25 03:25:35;;;;;;;1.10;1.10;;;8.60;99.90;;;;;;4995898;28;20212;-56
2023/09/25 03:28:02;;;;;;;1.37;1.10;;;8.70;99.90;;;;;;4992434;28;20211;-56
2023/09/25 03:30:29;;;;;;;1.20;1.10;;;8.70;99.90;;;;;;4996595;28;20202;-57
2023/09/25 03:32:56;;;;;;;1.10;1.10;;;8.70;99.90;;;;;;5005002;28;20234;-56
2023/09/25 03:35:23;;;;;;;1.20;1.20;;;8.70;99.90;;;;;;4994456;28;20205;-57
2023/09/25 03:37:50;;;;;;;1.50;1.40;;;8.70;99.90;;;;;;4994529;28;20204;-57
2023/09/25 03:40:19;;;;;;;1.60;1.50;;;8.70;99.90;;;;;;4995619;28;20291;-57
2023/09/25 03:42:46;;;;;;;1.83;1.00;;;8.70;99.90;;;;;;5005638;28;20224;-57
2023/09/25 03:45:13;;;;;;;1.00;1.00;;;8.70;99.90;;;;;;4998722;28;20205;-57
2023/09/25 03:47:40;;;;;;;1.13;1.07;;;8.70;99.90;;;;;;4995471;28;20203;-58
2023/09/25 03:50:08;;;;;;;1.37;1.27;;;8.70;99.90;;;;;;4991448;28;20282;-57
2023/09/25 03:52:35;;;;;;;3.77;1.50;;;8.70;99.90;;;;;;4989714;28;20238;-58
2023/09/25 03:55:02;;;;;;;1.20;1.20;;;8.70;99.90;;;;;;5023267;23;20248;-53
2023/09/25 03:57:30;;;;;;;2.27;1.43;;;8.60;99.90;;;;;;5008371;28;20229;-53
2023/09/25 03:59:57;;;;;;;2.30;1.33;;;8.60;99.90;;;;;;5015194;28;20198;-53
2023/09/25 04:02:24;;;;;;;1.50;1.37;;;8.60;99.90;;;;;;5017973;28;20284;-53
2023/09/25 04:04:51;;;;;;;1.27;1.17;;;8.60;99.90;;;;;;5007325;28;20253;-53
2023/09/25 04:07:18;;;;;;;1.97;1.77;;;8.70;99.90;;;;;;5015770;28;20673;-53
2023/09/25 04:09:45;;;;;;;1.37;1.27;;;8.70;99.90;;;;;;5003332;28;20217;-52
2023/09/25 04:12:14;;;;;;;1.13;1.10;;;8.60;99.90;;;;;;5015379;28;20250;-52
2023/09/25 04:14:42;;;;;;;1.53;1.40;;;8.60;99.90;;;;;;5013799;28;20230;-52
2023/09/25 04:17:10;;;;;;;2.40;1.20;;;8.60;99.90;;;;;;5012800;28;20657;-53
2023/09/25 04:19:37;;;;;;;1.67;1.10;;;8.50;99.90;;;;;;5013626;28;20205;-53
2023/09/25 04:22:06;;;;;;;1.17;1.17;;;8.60;99.90;;;;;;5007750;28;20237;-52
2023/09/25 04:24:37;;;;;;;1.80;1.53;;;8.60;99.90;;;;;;5010692;28;20725;-55
2023/09/25 04:27:04;;;;;;;1.50;1.37;;;8.50;99.90;;;;;;5001886;28;20202;-53
2023/09/25 04:29:34;;;;;;;1.97;1.10;;;8.50;99.90;;;;;;5011650;28;20214;-52
2023/09/25 04:32:03;;;;;;;1.23;1.10;;;8.50;99.90;;;;;;5010393;28;20199;-53
2023/09/25 04:34:35;;;;;;;1.07;1.07;;;8.60;99.90;;;;;;5012228;28;20273;-52
2023/09/25 04:37:02;;;;;;;1.33;1.23;;;8.60;99.90;;;;;;5006898;28;20454;-52
2023/09/25 04:39:33;;;;;;;1.47;1.43;;;8.60;99.90;;;;;;5009340;28;20210;-55
2023/09/25 04:42:00;;;;;;;1.23;1.13;;;8.60;99.90;;;;;;5008312;28;20215;-56
2023/09/25 04:44:27;;;;;;;3.13;1.17;;;8.60;99.90;;;;;;5004393;28;20312;-57
2023/09/25 04:46:55;;;;;;;1.07;1.00;;;8.50;99.90;;;;;;5003463;28;20490;-55
2023/09/25 04:49:23;;;;;;;2.23;1.43;;;8.50;99.90;;;;;;5012477;28;20282;-56
2023/09/25 04:51:50;;;;;;;1.50;0.90;;;8.50;99.90;;;;;;5010033;28;20253;-56
2023/09/25 04:54:18;;;;;;;1.20;1.10;;;8.40;99.90;;;;;;5002897;28;20300;-56
2023/09/25 04:56:46;;;;;;;1.07;0.90;;;8.40;99.90;;;;;;5003519;28;20208;-56
2023/09/25 04:59:13;;;;;;;2.33;1.10;;;8.40;99.90;;;;;;5001818;28;20201;-58
2023/09/25 05:01:40;;;;;;;1.40;1.33;;;8.50;99.90;;;;;;5001471;28;20219;-56
2023/09/25 05:04:07;;;;;;;1.57;1.30;;;8.40;99.90;;;;;;5007903;28;20256;-56
2023/09/25 05:06:35;;;;;;;3.17;1.17;;;8.50;99.90;;;;;;5013253;28;20209;-59
2023/09/25 05:09:03;;;;;;;1.10;1.10;;;8.40;99.90;;;;;;5005711;28;20263;-56
2023/09/25 05:11:31;;;;;;;0.80;0.80;;;8.40;99.90;;;;;;5009890;28;20254;-56
2023/09/25 05:13:58;;;;;;;1.40;1.00;;;8.40;99.90;;;;;;4999538;28;20230;-55
2023/09/25 05:16:25;;;;;;;1.80;1.13;;;8.40;99.90;;;;;;5012279;28;20312;-56
2023/09/25 05:18:52;;;;;;;2.70;1.10;;;8.40;99.90;;;;;;5017160;28;20205;-57
2023/09/25 05:21:19;;;;;;;1.77;1.67;;;8.40;99.90;;;;;;5009673;28;20228;-56
2023/09/25 05:23:47;;;;;;;1.80;1.23;;;8.40;99.90;;;;;;4995015;28;20582;-55
2023/09/25 05:26:14;;;;;;;1.00;1.00;;;8.50;99.90;;;;;;5009467;28;20579;-56
2023/09/25 05:28:41;;;;;;;1.30;1.20;;;8.50;99.90;;;;;;5006735;28;20204;-56
2023/09/25 05:31:08;;;;;;;1.67;1.20;;;8.40;99.90;;;;;;5014002;28;20192;-56
2023/09/25 05:33:35;;;;;;;2.70;1.33;;;8.40;99.90;;;;;;5010940;28;20255;-56
2023/09/25 05:36:02;;;;;;;1.37;1.30;;;8.50;99.90;;;;;;5006534;28;20755;-56
2023/09/25 05:38:29;;;;;;;1.87;1.77;;;8.50;99.90;;;;;;5009875;28;20201;-57
2023/09/25 05:40:57;;;;;;;2.80;2.27;;;8.50;99.90;;;;;;5021018;28;20665;-57
2023/09/25 05:43:24;;;;;;;1.60;1.50;;;8.50;99.90;;;;;;5019842;28;20277;-59
2023/09/25 05:45:51;;;;;;;1.10;1.10;;;8.50;99.90;;;;;;5022365;28;20197;-59
2023/09/25 05:48:18;;;;;;;2.77;1.63;;;8.50;99.90;;;;;;5023881;28;20192;-58
2023/09/25 05:50:45;;;;;;;4.00;2.27;;;8.60;99.90;;;;;;5012624;28;20301;-56
2023/09/25 05:53:14;;;;;;;1.83;1.73;;;8.60;99.90;;;;;;5011238;28;20253;-57
2023/09/25 05:55:41;;;;;;;2.47;2.33;;;8.70;99.90;;;;;;5016853;28;20289;-57
2023/09/25 05:58:09;;;;;;;2.10;1.90;;;8.80;99.90;;;;;;5020870;28;20201;-56
2023/09/25 06:00:37;;;;;;;1.50;1.40;;;8.90;99.90;;;;;;5018931;28;20198;-57
2023/09/25 06:03:04;;;;;;;2.70;2.17;;;9.00;99.90;;;;;;5012274;28;20261;-58
2023/09/25 06:05:31;;;;;;;2.23;2.03;;;9.10;99.90;;;;;;5011808;28;20258;-58
2023/09/25 06:07:58;;;;;;;4.07;2.40;;;9.30;99.90;;;;;;5001709;28;20275;-58
2023/09/25 06:10:25;;;;;;;3.90;2.87;;;9.70;99.90;;;;;;4995172;28;20647;-58
2023/09/25 06:12:52;;;;;;;3.80;2.20;;;10.60;99.90;;;;;;5003957;28;20658;-58
2023/09/25 06:15:23;;;;;;;1.23;1.20;;;11.60;99.90;;;;;;5011542;28;20221;-58
2023/09/25 06:17:50;;;;;;;1.83;1.37;;;12.20;99.90;;;;;;4997137;28;20724;-59
2023/09/25 06:20:17;;;;;;;3.93;1.60;;;12.50;99.90;;;;;;5034242;28;20206;-58
2023/09/25 06:22:44;;;;;;;1.57;1.30;;;12.30;99.90;;;;;;5027468;28;20227;-58
2023/09/25 06:25:14;;;;;;;1.27;1.27;;;12.00;99.90;;;;;;5014488;28;20310;-59
2023/09/25 06:27:44;;;;;;;1.17;0.97;;;11.60;99.90;;;;;;5021379;28;20218;-59
2023/09/25 06:30:12;;;;;;;1.43;0.70;;;11.40;99.90;;;;;;5031011;28;20207;-59
2023/09/25 06:32:40;;;;;;;1.03;1.03;;;11.30;99.90;;;;;;5031230;28;20201;-59
2023/09/25 06:35:08;;;;;;;2.40;1.10;;;11.20;99.90;;;;;;5030730;28;20311;-57
2023/09/25 06:37:35;;;;;;;1.97;1.03;;;11.20;99.90;;;;;;5030518;28;20617;-58
2023/09/25 06:40:03;;;;;;;1.07;0.80;;;11.20;99.90;;;;;;5021826;28;20209;-57
2023/09/25 06:42:30;;;;;;;1.03;0.93;;;11.30;99.90;;;;;;5013472;28;20225;-57
2023/09/25 06:44:59;;;;;;;1.07;1.07;;;11.40;99.90;;;;;;5024139;28;20307;-55
2023/09/25 06:47:26;;;;;;;3.40;1.13;;;11.30;99.90;;;;;;5023864;28;20271;-58
2023/09/25 06:49:55;;;;;;;1.93;1.00;;;11.40;99.90;;;;;;5027124;28;20685;-59
2023/09/25 06:52:22;;;;;;;1.30;1.10;;;11.40;99.90;;;;;;5022749;28;20230;-59
2023/09/25 06:54:49;;;;;;;2.30;1.20;;;11.40;99.90;;;;;;5014375;28;20311;-59
2023/09/25 06:57:16;;;;;;;4.13;1.23;;;11.30;99.90;;;;;;5030543;28;20208;-56
2023/09/25 06:59:43;;;;;;;4.67;1.40;;;11.40;99.90;;;;;;5029028;28;20287;-57
2023/09/25 07:02:10;;;;;;;1.37;1.27;;;11.40;99.90;;;;;;5017841;28;20221;-56
2023/09/25 07:04:39;;;;;;;2.33;1.20;;;11.40;99.90;;;;;;5021525;28;20554;-57
2023/09/25 07:07:08;;;;;;;1.33;1.27;;;11.40;99.90;;;;;;5021977;28;20210;-58
2023/09/25 07:09:36;;;;;;;2.97;1.43;;;11.50;99.90;;;;;;5030601;28;20222;-57
2023/09/25 07:12:03;;;;;;;1.33;1.07;;;11.60;99.90;;;;;;5030166;28;20197;-57
2023/09/25 07:14:33;;;;;;;0.80;0.80;;;11.70;99.90;;;;;;5030454;28;20275;-56
2023/09/25 07:17:01;;;;;;;1.10;1.10;;;11.70;99.90;;;;;;5037410;28;20201;-59
2023/09/25 07:19:28;;;;;;;1.40;1.30;;;11.70;99.90;;;;;;5034166;28;20245;-58
2023/09/25 07:21:55;;;;;;;1.37;1.23;;;11.80;99.90;;;;;;5026383;28;20296;-59
2023/09/25 07:24:23;;;;;;;3.47;1.60;;;11.80;99.90;;;;;;5036737;28;20222;-59
2023/09/25 07:26:51;;;;;;;1.70;1.10;;;11.80;99.90;;;;;;5040369;28;20621;-58
2023/09/25 07:29:19;;;;;;;1.10;1.10;;;12.00;99.90;;;;;;5038628;28;20205;-58
2023/09/25 07:31:46;;;;;;;2.53;0.93;;;12.00;99.90;;;;;;5037434;28;20208;-58
2023/09/25 07:34:13;;;;;;;1.10;1.10;;;12.10;99.90;;;;;;5037618;28;20295;-57
2023/09/25 07:36:40;;;;;;;1.43;1.00;;;12.30;99.90;;;;;;5029966;28;20257;-58
2023/09/25 07:39:13;;;;;;;1.50;0.53;;;12.40;99.90;;;;;;5028474;28;20205;-58
2023/09/25 07:41:41;;;;;;;1.37;0.80;;;12.50;99.90;;;;;;5029554;28;20260;-58
2023/09/25 07:44:11;;;;;;;0.60;0.60;;;12.80;99.90;;;;;;5038048;28;20325;-53
2023/09/25 07:46:38;;;;;;;0.53;0.53;;;13.10;99.90;;;;;;5037919;28;20213;-59
2023/09/25 07:49:07;;;;;;;0.43;0.40;;;13.40;99.90;;;;;;5041368;28;20198;-61
2023/09/25 07:51:34;;;;;;;1.73;0.70;;;13.60;99.90;;;;;;5039367;28;20201;-61
2023/09/25 07:54:03;;;;;;;0.57;0.50;;;13.60;99.90;;;;;;5023882;28;20255;-60
2023/09/25 07:56:30;;;;;;;0.40;0.40;;;13.60;99.90;;;;;;5019501;28;20231;-61
2023/09/25 07:58:58;;;;;;;0.50;0.50;;;13.60;99.90;;;;;;5030202;28;20257;-53
2023/09/25 08:01:29;;;;;;;1.60;0.67;;;13.70;99.90;;;;;;5030551;28;20205;-58
2023/09/25 08:03:57;;;;;;;1.10;0.73;;;13.80;99.90;;;;;;5026356;28;20261;-58
2023/09/25 08:06:27;;;;;;;0.50;0.50;;;13.70;99.90;;;;;;5031903;28;20210;-59
2023/09/25 08:08:54;;;;;;;1.67;1.13;;;13.80;99.90;;;;;;5025319;28;20217;-58
2023/09/25 08:11:21;;;;;;;2.10;0.80;;;14.10;99.90;;;;;;5025496;28;20281;-58
2023/09/25 08:13:49;;;;;;;1.17;1.13;;;14.40;99.90;;;;;;5029482;28;20655;-57
2023/09/25 08:16:18;;;;;;;1.07;1.00;;;15.00;99.90;;;;;;5033100;28;20721;-56
2023/09/25 08:18:46;;;;;;;0.73;0.60;;;15.70;99.90;;;;;;5033661;28;20555;-56
2023/09/25 08:21:13;;;;;;;1.33;0.80;;;16.60;99.90;;;;;;5033530;28;20662;-57
2023/09/25 08:23:39;;;;;;;3.10;0.50;;;17.50;99.90;;;;;;5033302;28;20226;-57
2023/09/25 08:26:06;;;;;;;1.03;0.80;;;18.50;99.90;;;;;;5026325;28;20203;-57
2023/09/25 08:28:34;;;;;;;1.90;0.80;;;19.50;99.90;;;;;;5022750;28;20203;-58
2023/09/25 08:31:01;;;;;;;0.60;0.60;;;19.90;99.90;;;;;;5033521;28;20224;-57
2023/09/25 08:33:30;;;;;;;0.80;0.50;;;20.20;99.90;;;;;;5033127;28;20664;-59
2023/09/25 08:35:57;;;;;;;0.60;0.60;;;20.70;99.90;;;;;;5032987;28;20285;-59
2023/09/25 08:38:23;;;;;;;0.80;0.50;;;21.10;99.90;;;;;;5033294;28;20195;-58
2023/09/25 08:40:51;;;;;;;1.27;0.60;;;21.50;99.90;;;;;;5032972;28;20203;-57
2023/09/25 08:43:21;;;;;;;1.43;0.60;;;21.60;99.90;;;;;;5024190;28;20223;-57
2023/09/25 08:45:50;;;;;;;0.50;0.50;;;21.90;99.90;;;;;;5021472;28;20330;-57
2023/09/25 08:48:19;;;;;;;1.70;0.70;;;22.00;99.90;;;;;;5028594;28;20286;-57
2023/09/25 08:50:48;;;;;;;1.60;0.60;;;22.10;99.90;;;;;;5032599;28;20314;-58
2023/09/25 08:53:15;;;;;;;1.90;0.63;;;22.50;99.90;;;;;;5032628;28;20195;-57
2023/09/25 08:55:44;;;;;;;0.50;0.50;;;22.90;99.90;;;;;;5030378;28;20199;-58
2023/09/25 08:58:12;;;;;;;0.50;0.50;;;22.70;99.90;;;;;;5030749;28;20257;-57
2023/09/25 09:00:40;;;;;;;1.13;0.80;;;23.00;99.90;;;;;;5016255;28;20203;-59
2023/09/25 09:03:07;;;;;;;1.13;0.60;;;22.90;99.90;;;;;;5026754;28;20232;-58
2023/09/25 09:05:34;;;;;;;1.40;0.60;;;23.30;99.90;;;;;;5032474;28;20202;-58
2023/09/25 09:08:05;;;;;;;1.13;0.43;;;23.40;99.90;;;;;;5032162;28;20603;-58
2023/09/25 09:10:33;;;;;;;0.50;0.50;;;23.30;99.90;;;;;;5032598;28;20616;-56
2023/09/25 09:12:59;;;;;;;0.60;0.50;;;23.20;99.90;;;;;;5026540;28;20240;-56
2023/09/25 09:15:28;;;;;;;0.50;0.50;;;23.00;99.90;;;;;;5027955;28;20245;-57
2023/09/25 09:17:55;;;;;;;6.57;0.40;;;23.00;99.90;;;;;;5017418;28;20199;-58
2023/09/25 09:20:24;;;;;;;0.70;0.60;;;23.00;99.90;;;;;;5026196;28;20378;-61
2023/09/25 09:22:51;;;;;;;0.70;0.70;;;23.30;99.90;;;;;;5027336;28;20222;-60
2023/09/25 09:25:23;;;;;;;0.70;0.50;;;23.50;99.90;;;;;;5031831;28;20248;-62
2023/09/25 09:27:50;;;;;;;0.80;0.80;;;23.50;99.90;;;;;;5032106;28;20547;-62
2023/09/25 09:30:22;;;;;;;1.47;0.40;;;23.70;99.90;;;;;;5032576;28;20384;-61
2023/09/25 09:32:50;;;;;;;0.70;0.70;;;23.70;99.90;;;;;;5021370;28;20589;-59
2023/09/25 09:35:22;;;;;;;0.43;0.43;;;23.80;99.90;;;;;;5017050;28;20310;-59
2023/09/25 09:37:52;;;;;;;0.60;0.60;;;24.20;99.90;;;;;;5011962;28;20203;-60
2023/09/25 09:40:21;;;;;;;1.60;0.67;;;24.30;99.90;;;;;;5027292;28;20233;-60
2023/09/25 09:42:49;;;;;;;1.83;0.77;;;24.70;99.90;;;;;;5031970;28;20314;-58
2023/09/25 09:45:16;;;;;;;0.60;0.53;;;24.70;99.90;;;;;;5031691;28;20300;-60
2023/09/25 09:47:47;;;;;;;1.07;0.60;;;24.20;99.90;;;;;;5030413;28;20202;-60
2023/09/25 09:50:25;;;;;;;0.93;0.93;;;24.20;99.90;;;;;;5026409;28;20203;-59
2023/09/25 09:52:52;;;;;;;0.97;0.60;;;24.20;99.90;;;;;;5032229;28;20195;-59
2023/09/25 09:55:22;;;;;;;0.77;0.77;;;24.40;99.90;;;;;;5031437;28;20582;-59
2023/09/25 09:57:50;;;;;;;2.50;0.73;;;24.40;99.90;;;;;;5031121;28;20198;-58
2023/09/25 10:00:17;;;;;;;1.30;0.80;;;24.60;99.40;;;;;;5031921;28;20198;-59
2023/09/25 10:02:45;;;;;;;1.00;0.90;;;24.60;99.90;;;;;;5031582;28;20230;-58
2023/09/25 10:05:14;;;;;;;3.10;0.40;;;24.10;98.40;;;;;;5024426;28;20301;-59
2023/09/25 10:08:10;;;;;;;1.20;0.90;;;24.30;98.90;;;;;;5021092;28;20712;-58
2023/09/25 10:10:41;;;;;;;1.13;1.13;;;23.90;99.30;;;;;;5023990;28;20226;-59
2023/09/25 10:13:10;;;;;;;1.40;1.40;;;24.30;99.90;;;;;;5050993;23;20311;-65
2023/09/25 10:15:38;;;;;;;1.57;1.50;;;24.10;99.90;;;;;;5031427;28;20743;-66
2023/09/25 10:18:07;;;;;;;1.53;1.43;;;23.70;99.90;;;;;;5031445;28;20665;-66
2023/09/25 10:20:37;;;;;;;2.53;1.30;;;23.70;99.90;;;;;;5034307;28;20213;-65
2023/09/25 10:23:08;;;;;;;1.43;1.33;;;23.70;99.90;;;;;;5029854;28;20305;-66
2023/09/25 10:25:47;;;;;;;1.53;1.50;;;23.30;99.90;;;;;;5031178;28;20663;-65
2023/09/25 10:28:18;;;;;;;1.43;1.27;;;23.00;99.90;;;;;;5031483;28;20714;-64
2023/09/25 10:30:46;;;;;;;2.43;1.83;;;22.70;99.90;;;;;;5031606;28;20229;-59
2023/09/25 10:33:13;;;;;;;2.27;1.80;;;22.70;99.90;;;;;;5029640;28;20297;-59
2023/09/25 10:35:42;;;;;;;3.03;2.10;;;22.70;99.90;;;;;;5031471;28;20285;-59
2023/09/25 10:38:15;;;;;;;1.73;1.50;;;22.50;99.90;;;;;;5030021;28;20217;-59
2023/09/25 10:40:48;;;;;;;2.13;2.00;;;22.30;99.90;;;;;;5025385;28;20221;-59
2023/09/25 10:43:17;;;;;;;1.80;1.80;;;21.90;99.90;;;;;;5039756;28;20301;-59
2023/09/25 10:45:45;;;;;;;2.40;2.30;;;21.60;99.90;;;;;;5039565;28;20248;-58
2023/09/25 10:48:12;;;;;;;2.63;2.27;;;21.80;99.90;;;;;;5029069;28;20198;-58
2023/09/25 10:50:40;;;;;;;3.80;3.00;;;21.60;99.90;;;;;;5030961;28;20203;-59
2023/09/25 10:53:08;;;;;;;2.30;2.20;;;20.70;99.90;;;;;;5031430;28;20268;-59
2023/09/25 10:55:35;;;;;;;2.37;2.27;;;20.60;99.90;;;;;;5029291;28;20206;-59
2023/09/25 10:58:06;;;;;;;2.70;2.60;;;20.50;99.90;;;;;;5031042;28;20625;-59
2023/09/25 11:00:34;;;;;;;2.37;2.23;;;20.50;99.90;;;;;;5031180;28;20689;-59
2023/09/25 11:03:02;;;;;;;2.07;2.07;;;20.60;99.90;;;;;;5030589;28;20305;-59
2023/09/25 11:05:30;;;;;;;2.80;2.70;;;20.60;99.90;;;;;;5030532;28;20210;-58
2023/09/25 11:07:58;;;;;;;3.67;3.37;;;20.50;99.90;;;;;;5030749;28;20195;-59
2023/09/25 11:10:29;;;;;;;3.63;2.93;;;20.00;99.90;;;;;;5030306;28;20681;-59
2023/09/25 11:12:57;;;;;;;3.63;3.40;;;19.90;99.90;;;;;;5023211;28;20218;-58
2023/09/25 11:15:27;;;;;;;3.43;3.23;;;19.50;99.90;;;;;;5031260;28;20461;-65
2023/09/25 11:17:56;;;;;;;3.43;3.23;;;19.30;99.90;;;;;;5030583;28;20202;-64
2023/09/25 11:20:29;;;;;;;3.23;3.03;;;19.50;99.90;;;;;;5030190;28;20194;-65
2023/09/25 11:23:04;;;;;;;3.40;3.13;;;19.30;99.90;;;;;;5030578;28;20219;-63
2023/09/25 11:25:31;;;;;;;4.07;3.77;;;19.20;99.90;;;;;;5029057;28;20233;-64
2023/09/25 11:27:58;;;;;;;4.43;4.03;;;19.20;99.90;;;;;;5030509;28;20653;-65
2023/09/25 11:30:30;;;;;;;3.87;3.57;;;19.10;99.90;;;;;;5030839;28;20249;-63
2023/09/25 11:32:57;;;;;;;4.00;3.70;;;19.10;99.90;;;;;;5030823;28;20246;-64
2023/09/25 11:35:27;;;;;;;4.20;3.90;;;19.00;99.90;;;;;;5031034;28;20210;-63
2023/09/25 11:37:59;;;;;;;4.10;3.80;;;18.90;99.90;;;;;;5033317;28;20297;-63
2023/09/25 11:40:26;;;;;;;5.00;4.80;;;18.80;99.90;;;;;;5034762;28;20233;-63
2023/09/25 11:42:53;;;;;;;4.70;4.50;;;18.70;99.90;;;;;;5028312;28;20226;-63
2023/09/25 11:45:20;;;;;;;3.77;3.53;;;18.60;99.90;;;;;;5030494;28;20229;-64
2023/09/25 11:47:49;;;;;;;3.37;3.17;;;18.50;99.90;;;;;;5030590;28;20556;-62
2023/09/25 11:50:17;;;;;;;3.50;2.67;;;18.50;99.90;;;;;;5029616;28;20195;-65
2023/09/25 11:52:45;;;;;;;2.70;2.53;;;18.60;99.90;;;;;;5027752;28;20721;-66
2023/09/25 11:55:14;;;;;;;3.23;2.93;;;18.80;99.90;;;;;;5034452;28;20285;-64
2023/09/25 11:57:42;;;;;;;3.43;3.23;;;18.80;99.90;;;;;;5033823;28;20669;-66
2023/09/25 12:00:10;;;;;;;3.07;2.93;;;18.90;99.90;;;;;;5033296;28;20214;-63
2023/09/25 12:02:38;;;;;;;3.83;3.40;;;18.90;99.90;;;;;;5034118;28;20222;-66
2023/09/25 12:05:07;;;;;;;3.20;3.03;;;18.70;99.90;;;;;;5029228;28;20195;-67
2023/09/25 12:07:36;;;;;;;4.30;4.03;;;18.60;99.90;;;;;;5031011;28;20202;-67
2023/09/25 12:10:05;;;;;;;4.83;4.07;;;18.70;99.90;;;;;;5025794;28;20213;-66
2023/09/25 12:12:33;;;;;;;3.10;2.80;;;18.60;99.90;;;;;;5034059;28;20226;-65
2023/09/25 12:15:01;;;;;;;4.00;3.70;;;18.70;99.90;;;;;;5029706;28;20638;-68
2023/09/25 12:17:30;;;;;;;3.03;2.87;;;18.70;99.90;;;;;;5030347;28;20203;-65
2023/09/25 12:19:57;;;;;;;4.30;3.90;;;18.70;99.90;;;;;;5026168;28;20276;-64
2023/09/25 12:22:26;;;;;;;4.17;3.87;;;18.80;99.90;;;;;;5033781;28;20272;-66
2023/09/25 12:24:53;;;;;;;3.57;2.87;;;18.90;99.90;;;;;;5032660;28;20222;-69
2023/09/25 12:27:20;;;;;;;3.57;3.37;;;18.80;99.90;;;;;;5028955;28;20253;-68
2023/09/25 12:29:47;;;;;;;3.60;3.40;;;18.90;99.90;;;;;;5031844;28;20199;-68
2023/09/25 12:32:14;;;;;;;3.10;2.90;;;18.90;99.90;;;;;;5033746;28;20244;-68
2023/09/25 12:34:41;;;;;;;5.53;5.23;;;18.80;99.90;;;;;;5033602;28;20682;-69
2023/09/25 12:37:08;;;;;;;4.67;3.87;;;18.90;99.90;;;;;;5033359;28;20654;-68
2023/09/25 12:39:38;;;;;;;4.23;4.03;;;18.80;99.90;;;;;;5033553;28;20625;-69
2023/09/25 12:42:05;;;;;;;4.43;4.23;;;18.70;99.90;;;;;;5034427;28;20268;-66
2023/09/25 12:44:35;;;;;;;4.53;4.23;;;18.60;99.90;;;;;;5033474;28;20218;-67
2023/09/25 12:47:02;;;;;;;4.03;3.70;;;18.50;99.90;;;;;;5031425;28;20581;-67
2023/09/25 12:49:29;;;;;;;5.50;5.20;;;18.40;99.90;;;;;;5033277;28;20333;-67
2023/09/25 12:51:56;;;;;;;3.73;3.53;;;18.40;99.90;;;;;;5033840;28;20222;-65
2023/09/25 12:54:23;;;;;;;3.03;2.83;;;18.50;99.90;;;;;;5033905;28;20197;-66